Time;durP1;ratioP1;P1;durP2;ratioP2;P2;SDS_P1;SDS_P2;PMS_P1;PMS_P2;Temp;Humidity;BMP_temperature;BMP_pressure;BME280_temperature;BME280_humidity;BME280_pressure;Samples;Min_cycle;Max_cycle;Signal;HPM_P1;HPM_P2
2021/11/16 00:02:22;;;;;;;;;;;;;;;14.30;100.00;102416.94;5056482;28;19971;-52
2021/11/16 00:04:50;;;;;;;;;;;;;;;14.28;100.00;102413.59;5056710;28;20261;-51
2021/11/16 00:07:15;;;;;;;;;;;;;;;14.23;100.00;102410.63;5055368;28;19913;-50
2021/11/16 00:09:40;;;;;;;;;;;;;;;14.06;100.00;102416.13;5087999;28;20390;-53
2021/11/16 00:12:06;;;;;;;;;;;;;;;14.30;100.00;102411.56;5088793;28;20381;-50
2021/11/16 00:14:31;;;;;;;;;;;;;;;14.30;100.00;102416.94;5055655;28;20016;-53
2021/11/16 00:16:57;;;;;;;;;;;;;;;14.33;100.00;102412.03;5054429;28;20377;-51
2021/11/16 00:19:23;;;;;;;;;;;;;;;14.36;100.00;102402.78;5056166;28;19916;-52
2021/11/16 00:21:50;;;;;;;;;;;;;;;14.26;100.00;102396.81;5055556;28;19924;-53
2021/11/16 00:24:19;;;;;;;;;;;;;;;14.12;100.00;102399.28;5088644;28;19916;-49
2021/11/16 00:26:45;;;;;;;;;;;;;;;14.19;100.00;102399.41;5055617;28;19924;-49
2021/11/16 00:29:11;;;;;;;;;;;;;;;14.19;100.00;102394.84;5055979;28;20352;-53
2021/11/16 00:31:37;;;;;;;;;;;;;;;14.25;100.00;102390.59;5054661;28;19933;-53
2021/11/16 00:34:03;;;;;;;;;;;;;;;14.31;100.00;102394.44;5055611;28;19970;-51
2021/11/16 00:36:28;;;;;;;;;;;;;;;14.28;100.00;102392.94;5056125;28;20299;-48
2021/11/16 00:38:54;;;;;;;;;;;;;;;14.34;100.00;102394.06;5055464;28;19917;-52
2021/11/16 00:41:19;;;;;;;;;;;;;;;14.28;100.00;102397.47;5056597;28;19921;-50
2021/11/16 00:43:44;;;;;;;;;;;;;;;14.31;100.00;102389.03;5055581;28;20395;-53
2021/11/16 00:46:10;;;;;;;;;;;;;;;14.26;100.00;102386.88;5087746;28;19925;-48
2021/11/16 00:48:35;;;;;;;;;;;;;;;14.25;100.00;102387.06;5054635;28;19921;-50
2021/11/16 00:51:02;;;;;;;;;;;;;;;14.26;100.00;102383.34;5054875;28;19963;-50
2021/11/16 00:53:29;;;;;;;;;;;;;;;14.30;100.00;102390.03;5055382;28;20264;-50
2021/11/16 00:55:54;;;;;;;;;;;;;;;14.23;100.00;102384.56;5054791;28;20366;-49
2021/11/16 00:58:20;;;;;;;;;;;;;;;14.29;100.00;102377.59;5054997;28;19956;-49
2021/11/16 01:00:45;;;;;;;;;;;;;;;14.19;100.00;102378.72;5054609;28;19916;-51
2021/11/16 01:03:13;;;;;;;;;;;;;;;14.22;100.00;102366.75;5054591;28;19912;-48
2021/11/16 01:05:39;;;;;;;;;;;;;;;14.27;100.00;102374.25;5054763;28;19932;-50
2021/11/16 01:08:04;;;;;;;;;;;;;;;14.25;100.00;102371.78;5054701;28;19925;-48
2021/11/16 01:10:29;;;;;;;;;;;;;;;14.13;100.00;102368.69;5054653;28;20380;-50
2021/11/16 01:12:55;;;;;;;;;;;;;;;13.80;100.00;102371.63;5054862;28;19979;-52
2021/11/16 01:15:21;;;;;;;;;;;;;;;13.31;100.00;102362.81;5053065;28;19928;-49
2021/11/16 01:17:47;;;;;;;;;;;;;;;13.82;100.00;102369.56;5054420;28;19962;-49
2021/11/16 01:20:13;;;;;;;;;;;;;;;14.03;100.00;102365.38;5052673;28;20019;-49
2021/11/16 01:22:39;;;;;;;;;;;;;;;13.98;100.00;102359.72;5053880;28;20282;-52
2021/11/16 01:25:05;;;;;;;;;;;;;;;13.95;100.00;102354.72;5054071;28;20030;-53
2021/11/16 01:27:34;;;;;;;;;;;;;;;13.97;100.00;102350.84;5053584;28;19920;-55
2021/11/16 01:30:01;;;;;;;;;;;;;;;14.14;100.00;102356.03;5054036;28;20272;-55
2021/11/16 01:32:38;;;;;;;;;;;;;;;14.08;100.00;102354.09;5053124;28;19975;-54
2021/11/16 01:35:04;;;;;;;;;;;;;;;13.82;100.00;102348.06;5053818;28;19928;-55
2021/11/16 01:37:30;;;;;;;;;;;;;;;13.56;100.00;102349.25;5053915;28;19924;-55
2021/11/16 01:39:56;;;;;;;;;;;;;;;13.81;100.00;102349.09;5053904;28;19917;-53
2021/11/16 01:42:22;;;;;;;;;;;;;;;13.90;100.00;102350.72;5053694;28;20003;-53
2021/11/16 01:44:48;;;;;;;;;;;;;;;14.01;100.00;102345.91;5053027;28;20297;-50
2021/11/16 01:47:13;;;;;;;;;;;;;;;14.01;100.00;102343.22;5069304;28;20343;-49
2021/11/16 01:49:39;;;;;;;;;;;;;;;14.02;100.00;102352.97;5051970;28;19950;-52
2021/11/16 01:52:05;;;;;;;;;;;;;;;14.09;100.00;102340.47;5085546;28;20018;-53
2021/11/16 01:54:30;;;;;;;;;;;;;;;14.12;100.00;102348.19;5053358;28;19968;-51
2021/11/16 01:56:56;;;;;;;;;;;;;;;14.04;100.00;102349.06;5053394;28;19955;-50
2021/11/16 01:59:21;;;;;;;;;;;;;;;14.02;100.00;102347.56;5053110;28;19916;-53
2021/11/16 02:01:48;;;;;;;;;;;;;;;13.90;100.00;102342.66;5053407;28;19916;-52
2021/11/16 02:04:13;;;;;;;;;;;;;;;13.81;100.00;102345.56;5053081;28;19920;-52
2021/11/16 02:06:41;;;;;;;;;;;;;;;13.99;100.00;102342.56;5053263;28;19917;-50
2021/11/16 02:09:07;;;;;;;;;;;;;;;14.08;100.00;102344.19;5053538;28;19967;-54
2021/11/16 02:11:33;;;;;;;;;;;;;;;13.95;100.00;102338.56;5085296;28;19925;-51
2021/11/16 02:13:59;;;;;;;;;;;;;;;13.89;100.00;102340.97;5053194;28;19917;-49
2021/11/16 02:16:24;;;;;;;;;;;;;;;14.00;100.00;102341.53;5052868;28;19917;-51
2021/11/16 02:18:50;;;;;;;;;;;;;;;14.00;100.00;102342.41;5051783;28;19967;-49
2021/11/16 02:21:16;;;;;;;;;;;;;;;13.81;100.00;102330.25;5053474;28;19960;-53
2021/11/16 02:23:43;;;;;;;;;;;;;;;13.55;100.00;102336.03;5052758;28;19917;-49
2021/11/16 02:26:08;;;;;;;;;;;;;;;13.83;100.00;102336.28;5052799;28;19955;-52
2021/11/16 02:28:35;;;;;;;;;;;;;;;13.94;100.00;102326.16;5068067;28;19916;-51
2021/11/16 02:31:01;;;;;;;;;;;;;;;14.03;100.00;102328.56;5052918;28;19960;-48
2021/11/16 02:33:26;;;;;;;;;;;;;;;14.00;100.00;102334.31;5052616;28;19924;-50
2021/11/16 02:35:52;;;;;;;;;;;;;;;13.94;100.00;102326.16;5052517;28;19917;-51
2021/11/16 02:38:18;;;;;;;;;;;;;;;13.88;100.00;102333.06;5053369;28;19962;-50
2021/11/16 02:40:43;;;;;;;;;;;;;;;13.88;100.00;102328.53;5084939;28;19924;-52
2021/11/16 02:43:10;;;;;;;;;;;;;;;13.78;100.00;102319.88;5052823;28;19917;-52
2021/11/16 02:45:36;;;;;;;;;;;;;;;14.02;100.00;102320.69;5051728;28;19956;-53
2021/11/16 02:48:11;;;;;;;;;;;;;;;13.89;100.00;102319.47;5051449;28;19912;-52
2021/11/16 02:50:37;;;;;;;;;;;;;;;14.02;100.00;102323.38;5051685;28;19917;-51
2021/11/16 02:53:03;;;;;;;;;;;;;;;14.06;100.00;102313.91;5052588;28;19943;-54
2021/11/16 02:55:28;;;;;;;;;;;;;;;13.91;100.00;102324.63;5053071;28;20008;-49
2021/11/16 02:57:54;;;;;;;;;;;;;;;13.83;100.00;102319.34;5053230;28;19928;-54
2021/11/16 03:00:19;;;;;;;;;;;;;;;13.16;100.00;102317.06;5055974;28;19928;-49
2021/11/16 03:02:45;;;;;;;;;;;;;;;13.28;100.00;102316.69;5055690;28;20345;-50
2021/11/16 03:05:11;;;;;;;;;;;;;;;13.46;100.00;102322.63;5055103;28;19921;-54
2021/11/16 03:07:45;;;;;;;;;;;;;;;13.30;100.00;102312.78;5055405;28;20000;-53
2021/11/16 03:10:10;;;;;;;;;;;;;;;13.57;100.00;102313.31;5056694;28;20003;-53
2021/11/16 03:12:36;;;;;;;;;;;;;;;13.44;100.00;102313.91;5056223;28;20413;-52
2021/11/16 03:15:02;;;;;;;;;;;;;;;13.73;100.00;102316.91;5089361;28;19917;-53
2021/11/16 03:17:28;;;;;;;;;;;;;;;13.88;100.00;102320.47;5088711;28;19917;-54
2021/11/16 03:19:53;;;;;;;;;;;;;;;13.82;100.00;102313.13;5056290;28;19916;-53
2021/11/16 03:22:23;;;;;;;;;;;;;;;13.90;100.00;102315.75;5056073;28;19916;-54
2021/11/16 03:24:49;;;;;;;;;;;;;;;13.68;100.00;102305.84;5088104;28;19975;-52
2021/11/16 03:27:15;;;;;;;;;;;;;;;13.62;100.00;102307.41;5056001;28;19926;-54
2021/11/16 03:29:47;;;;;;;;;;;;;;;13.80;100.00;102301.69;5056517;28;20022;-51
2021/11/16 03:32:16;;;;;;;;;;;;;;;13.58;100.00;102292.66;5056427;28;20316;-52
2021/11/16 03:34:43;;;;;;;;;;;;;;;13.31;100.00;102290.28;5056582;28;19921;-54
2021/11/16 03:37:10;;;;;;;;;;;;;;;13.05;100.00;102287.94;5056165;28;19923;-50
2021/11/16 03:39:36;;;;;;;;;;;;;;;13.15;100.00;102287.72;5055853;28;19921;-48
2021/11/16 03:42:01;;;;;;;;;;;;;;;13.48;100.00;102300.97;5055704;28;19916;-48
2021/11/16 03:44:27;;;;;;;;;;;;;;;13.62;100.00;102299.34;5088391;28;19921;-49
2021/11/16 03:46:52;;;;;;;;;;;;;;;13.43;100.00;102298.78;5054341;28;19959;-53
2021/11/16 03:49:18;;;;;;;;;;;;;;;13.38;100.00;102300.31;5055632;28;19920;-52
2021/11/16 03:51:45;;;;;;;;;;;;;;;13.67;100.00;102298.81;5056201;28;19978;-49
2021/11/16 03:54:11;;;;;;;;;;;;;;;13.65;100.00;102300.84;5054642;28;19978;-49
2021/11/16 03:56:36;;;;;;;;;;;;;;;13.84;100.00;102308.41;5054529;28;20016;-53
2021/11/16 03:59:02;;;;;;;;;;;;;;;13.83;100.00;102301.34;5055722;28;19956;-51
2021/11/16 04:01:28;;;;;;;;;;;;;;;13.80;100.00;102298.19;5054605;28;19948;-50
2021/11/16 04:03:53;;;;;;;;;;;;;;;13.80;100.00;102300.88;5055387;28;19955;-53
2021/11/16 04:06:21;;;;;;;;;;;;;;;13.86;100.00;102302.84;5055508;28;19931;-55
2021/11/16 04:08:46;;;;;;;;;;;;;;;13.86;100.00;102309.06;5054980;28;19927;-50
2021/11/16 04:11:12;;;;;;;;;;;;;;;13.80;100.00;102301.69;5087729;28;19916;-50
2021/11/16 04:13:37;;;;;;;;;;;;;;;13.88;100.00;102300.81;5055557;28;20011;-49
2021/11/16 04:16:03;;;;;;;;;;;;;;;13.95;100.00;102307.13;5055400;28;20368;-53
2021/11/16 04:18:29;;;;;;;;;;;;;;;13.99;100.00;102315.66;5055442;28;19923;-52
2021/11/16 04:20:55;;;;;;;;;;;;;;;13.95;100.00;102306.28;5054268;28;19916;-51
2021/11/16 04:23:21;;;;;;;;;;;;;;;13.89;100.00;102310.53;5054853;28;19935;-51
2021/11/16 04:25:46;;;;;;;;;;;;;;;13.83;100.00;102304.03;5054915;28;19917;-53
2021/11/16 04:28:14;;;;;;;;;;;;;;;14.00;100.00;102309.28;5054904;28;20300;-53
2021/11/16 04:30:39;;;;;;;;;;;;;;;14.00;100.00;102299.38;5055189;28;19927;-50
2021/11/16 04:33:05;;;;;;;;;;;;;;;14.06;100.00;102308.53;5054726;28;20015;-52
2021/11/16 04:35:31;;;;;;;;;;;;;;;14.10;100.00;102309.00;5070307;28;19912;-51
2021/11/16 04:37:58;;;;;;;;;;;;;;;14.04;100.00;102306.03;5087439;28;19917;-50
2021/11/16 04:40:31;;;;;;;;;;;;;;;14.02;100.00;102307.22;5087568;28;19924;-53
2021/11/16 04:42:58;;;;;;;;;;;;;;;14.03;100.00;102303.53;5053269;28;19920;-50
2021/11/16 04:45:25;;;;;;;;;;;;;;;14.06;100.00;102303.16;5054814;28;19917;-55
2021/11/16 04:50:34;;;;;;;;;;;;;;;14.01;100.00;102306.41;5054494;28;20270;-54
2021/11/16 05:03:38;;;;;;;;;;;;;;;13.94;100.00;102299.25;5054755;28;19920;-53
2021/11/16 05:06:04;;;;;;;;;;;;;;;14.03;100.00;102298.13;5054644;28;19927;-51
2021/11/16 05:08:29;;;;;;;;;;;;;;;14.07;100.00;102298.63;5087072;28;20015;-51
2021/11/16 05:10:54;;;;;;;;;;;;;;;14.08;100.00;102305.66;5070619;28;19921;-57
2021/11/16 05:13:20;;;;;;;;;;;;;;;14.08;100.00;102301.16;5086288;28;20366;-51
2021/11/16 05:15:45;;;;;;;;;;;;;;;14.16;100.00;102303.75;5052644;28;19974;-51
2021/11/16 05:18:11;;;;;;;;;;;;;;;14.19;100.00;102298.00;5054082;28;19921;-52
2021/11/16 05:20:37;;;;;;;;;;;;;;;14.22;100.00;102295.94;5068422;28;19931;-55
2021/11/16 05:23:02;;;;;;;;;;;;;;;14.19;100.00;102295.31;5053705;28;19917;-52
2021/11/16 05:25:29;;;;;;;;;;;;;;;14.18;100.00;102290.94;5053875;28;19916;-50
2021/11/16 05:27:54;;;;;;;;;;;;;;;14.19;100.00;102299.88;5054064;28;19921;-54
2021/11/16 05:30:27;;;;;;;;;;;;;;;13.97;100.00;102297.03;5054501;28;20016;-52
2021/11/16 05:32:52;;;;;;;;;;;;;;;14.03;100.00;102301.69;5086072;28;19917;-51
2021/11/16 05:35:17;;;;;;;;;;;;;;;14.12;100.00;102299.75;5053876;28;19979;-54
2021/11/16 05:37:43;;;;;;;;;;;;;;;14.15;100.00;102299.38;5086706;28;19912;-49
2021/11/16 05:40:09;;;;;;;;;;;;;;;14.14;100.00;102296.88;5053912;28;19967;-51
2021/11/16 05:42:34;;;;;;;;;;;;;;;13.95;100.00;102299.03;5085776;28;19924;-51
2021/11/16 05:45:03;;;;;;;;;;;;;;;13.95;100.00;102301.75;5053410;28;19946;-50
2021/11/16 05:47:28;;;;;;;;;;;;;;;14.08;100.00;102298.44;5053751;28;19917;-53
2021/11/16 05:49:54;;;;;;;;;;;;;;;14.01;100.00;102294.81;5052068;28;19944;-52
2021/11/16 05:52:20;;;;;;;;;;;;;;;14.09;100.00;102305.50;5053273;28;19917;-49
2021/11/16 05:54:45;;;;;;;;;;;;;;;13.99;100.00;102302.22;5052061;28;19921;-52
2021/11/16 05:57:11;;;;;;;;;;;;;;;13.97;100.00;102299.72;5053224;28;19916;-54
2021/11/16 05:59:36;;;;;;;;;;;;;;;14.01;100.00;102297.50;5053153;28;20042;-50
2021/11/16 06:02:03;;;;;;;;;;;;;;;14.05;100.00;102293.41;5053104;28;19960;-50
2021/11/16 06:04:29;;;;;;;;;;;;;;;14.03;100.00;102298.13;5053233;28;19919;-54
2021/11/16 06:06:54;;;;;;;;;;;;;;;14.06;100.00;102292.38;5052881;28;20436;-52
2021/11/16 06:09:20;;;;;;;;;;;;;;;14.12;100.00;102296.22;5052960;28;19927;-54
2021/11/16 06:11:45;;;;;;;;;;;;;;;14.08;100.00;102290.38;5085038;28;20277;-55
2021/11/16 06:14:11;;;;;;;;;;;;;;;14.25;100.00;102293.72;5053131;28;20011;-52
2021/11/16 06:16:38;;;;;;;;;;;;;;;14.02;100.00;102291.09;5052687;28;20035;-53
2021/11/16 06:19:07;;;;;;;;;;;;;;;14.05;100.00;102296.09;5052842;28;19978;-53
2021/11/16 06:21:32;;;;;;;;;;;;;;;14.02;100.00;102300.00;5085149;28;19945;-53
2021/11/16 06:23:58;;;;;;;;;;;;;;;14.04;100.00;102294.44;5051181;28;19999;-49
2021/11/16 06:26:24;;;;;;;;;;;;;;;14.06;100.00;102303.16;5085257;28;19917;-51
2021/11/16 06:28:50;;;;;;;;;;;;;;;14.08;100.00;102301.16;5053015;28;19919;-53
2021/11/16 06:31:20;;;;;;;;;;;;;;;14.07;100.00;102296.78;5084728;28;19932;-54
2021/11/16 06:33:46;;;;;;;;;;;;;;;14.08;100.00;102300.28;5052769;28;20007;-54
2021/11/16 06:36:11;;;;;;;;;;;;;;;14.01;100.00;102295.66;5052555;28;19959;-53
2021/11/16 06:38:37;;;;;;;;;;;;;;;14.02;100.00;102301.84;5052753;28;19912;-51
2021/11/16 06:41:02;;;;;;;;;;;;;;;14.09;100.00;102294.75;5052935;28;19923;-51
2021/11/16 06:43:31;;;;;;;;;;;;;;;14.07;100.00;102291.41;5052715;28;20069;-52
2021/11/16 06:46:00;;;;;;;;;;;;;;;14.12;100.00;102289.00;5052431;28;19917;-50
2021/11/16 06:48:26;;;;;;;;;;;;;;;14.01;100.00;102287.59;5051286;28;20361;-53
2021/11/16 06:50:52;;;;;;;;;;;;;;;13.83;100.00;102290.59;5051121;28;19916;-56
2021/11/16 06:53:24;;;;;;;;;;;;;;;14.01;100.00;102286.72;5052716;28;19963;-51
2021/11/16 06:55:49;;;;;;;;;;;;;;;13.90;100.00;102288.84;5084820;28;20372;-51
2021/11/16 06:58:15;;;;;;;;;;;;;;;14.05;100.00;102285.34;5084480;28;19999;-55
2021/11/16 07:00:40;;;;;;;;;;;;;;;14.06;100.00;102292.38;5067960;28;19925;-51
2021/11/16 07:03:05;;;;;;;;;;;;;;;13.81;100.00;102292.63;5084309;28;20280;-53
2021/11/16 07:05:31;;;;;;;;;;;;;;;13.80;100.00;102288.25;5085120;28;19917;-54
2021/11/16 07:07:57;;;;;;;;;;;;;;;13.86;100.00;102286.72;5052429;28;19928;-49
2021/11/16 07:10:25;;;;;;;;;;;;;;;13.98;100.00;102289.78;5052228;28;19970;-53
2021/11/16 07:13:02;;;;;;;;;;;;;;;13.94;100.00;102283.13;5084068;28;19924;-53
2021/11/16 07:15:31;;;;;;;;;;;;;;;13.99;100.00;102291.47;5051351;28;19916;-53
2021/11/16 07:18:00;;;;;;;;;;;;;;;13.84;100.00;102297.66;5052484;28;20375;-52
2021/11/16 07:20:25;;;;;;;;;;;;;;;13.82;100.00;102291.59;5052211;28;19923;-52
2021/11/16 07:22:52;;;;;;;;;;;;;;;13.89;100.00;102297.09;5052740;28;19921;-50
2021/11/16 07:25:17;;;;;;;;;;;;;;;13.77;100.00;102294.84;5052290;28;19920;-52
2021/11/16 07:27:44;;;;;;;;;;;;;;;13.84;100.00;102296.81;5050758;28;19927;-53
2021/11/16 07:30:14;;;;;;;;;;;;;;;13.91;100.00;102289.69;5052116;28;19912;-50
2021/11/16 07:32:49;;;;;;;;;;;;;;;13.95;100.00;102293.66;5052682;28;20418;-53
2021/11/16 07:35:15;;;;;;;;;;;;;;;13.95;100.00;102290.16;5052101;28;19939;-49
2021/11/16 07:37:42;;;;;;;;;;;;;;;13.91;100.00;102289.69;5052248;28;20027;-54
2021/11/16 07:40:12;;;;;;;;;;;;;;;13.93;100.00;102294.88;5052049;28;19931;-55
2021/11/16 07:42:47;;;;;;;;;;;;;;;13.98;100.00;102285.25;5052607;28;19917;-52
2021/11/16 07:45:18;;;;;;;;;;;;;;;13.90;100.00;102294.25;5056020;28;19916;-50
2021/11/16 07:47:48;;;;;;;;;;;;;;;13.91;100.00;102303.97;5056411;28;19917;-52
2021/11/16 07:50:37;;;;;;;;;;;;;;;13.98;100.00;102300.56;5054526;28;19921;-53
2021/11/16 07:53:11;;;;;;;;;;;;;;;13.88;100.00;102296.28;5048874;28;19924;-53
2021/11/16 07:55:36;;;;;;;;;;;;;;;13.81;100.00;102295.31;5055433;28;20016;-53
2021/11/16 07:58:09;;;;;;;;;;;;;;;13.78;100.00;102298.38;5056006;28;20003;-53
2021/11/16 08:00:37;;;;;;;;;;;;;;;13.89;100.00;102299.78;5054287;28;20011;-51
2021/11/16 08:03:08;;;;;;;;;;;;;;;13.81;100.00;102295.31;5055521;28;19932;-50
2021/11/16 08:08:08;;;;;;;;;;;;;;;13.92;100.00;102288.66;5055991;28;19916;-49
2021/11/16 08:10:37;;;;;;;;;;;;;;;14.01;100.00;102290.28;5055621;28;19912;-53
2021/11/16 08:13:04;;;;;;;;;;;;;;;14.04;100.00;102291.75;5054414;28;20406;-54
2021/11/16 08:15:29;;;;;;;;;;;;;;;13.89;100.00;102292.56;5055973;28;19932;-54
2021/11/16 08:18:00;;;;;;;;;;;;;;;14.03;100.00;102290.94;5053992;28;20229;-50
2021/11/16 08:20:25;;;;;;;;;;;;;;;14.01;100.00;102282.19;5088314;28;20024;-53
2021/11/16 08:22:51;;;;;;;;;;;;;;;14.03;100.00;102282.84;5054328;28;19928;-54
2021/11/16 08:25:21;;;;;;;;;;;;;;;13.78;100.00;102290.31;5070790;28;20019;-54
2021/11/16 08:27:46;;;;;;;;;;;;;;;13.69;100.00;102283.31;5054896;28;19917;-53
2021/11/16 08:30:18;;;;;;;;;;;;;;;13.94;100.00;102288.50;5054920;28;19955;-53
2021/11/16 08:32:46;;;;;;;;;;;;;;;14.00;100.00;102285.06;5053888;28;20463;-52
2021/11/16 08:35:15;;;;;;;;;;;;;;;14.03;100.00;102290.94;5054547;28;19916;-53
2021/11/16 08:37:41;;;;;;;;;;;;;;;14.02;100.00;102280.34;5054655;28;19990;-53
2021/11/16 08:40:06;;;;;;;;;;;;;;;14.08;100.00;102285.00;5053127;28;20380;-55
2021/11/16 08:42:36;;;;;;;;;;;;;;;14.04;100.00;102284.53;5087160;28;20372;-54
2021/11/16 08:45:12;;;;;;;;;;;;;;;14.05;100.00;102274.59;5054617;28;19924;-56
2021/11/16 08:47:38;;;;;;;;;;;;;;;14.15;100.00;102282.38;5054958;28;20462;-55
2021/11/16 08:50:05;;;;;;;;;;;;;;;14.12;100.00;102280.91;5054425;28;19916;-55
2021/11/16 08:52:32;;;;;;;;;;;;;;;14.20;100.00;102277.31;5054618;28;19999;-55
2021/11/16 08:54:59;;;;;;;;;;;;;;;14.23;100.00;102282.31;5054601;28;19974;-55
2021/11/16 08:57:26;;;;;;;;;;;;;;;14.23;100.00;102276.94;5053868;28;20303;-51
2021/11/16 08:59:52;;;;;;;;;;;;;;;14.19;100.00;102276.47;5054779;28;19912;-52
2021/11/16 09:02:19;;;;;;;;;;;;;;;14.08;100.00;102268.88;5054413;28;19927;-50
2021/11/16 09:04:45;;;;;;;;;;;;;;;13.88;100.00;102269.38;5054206;28;19968;-51
2021/11/16 09:07:19;;;;;;;;;;;;;;;13.97;100.00;102267.47;5053204;28;19921;-52
2021/11/16 09:09:54;;;;;;;;;;;;;;;14.13;100.00;102263.75;5054817;28;19920;-53
2021/11/16 09:12:30;;;;;;;;;;;;;;;14.14;100.00;102264.56;5054258;28;19969;-53
2021/11/16 09:14:57;;;;;;;;;;;;;;;14.00;100.00;102261.72;5086278;28;19928;-52
2021/11/16 09:17:22;;;;;;;;;;;;;;;14.16;100.00;102268.78;5085825;28;19950;-51
2021/11/16 09:19:48;;;;;;;;;;;;;;;14.17;100.00;102258.81;5086933;28;20368;-53
2021/11/16 09:22:15;;;;;;;;;;;;;;;14.17;100.00;102259.69;5069430;28;19924;-53
2021/11/16 09:24:41;;;;;;;;;;;;;;;14.26;100.00;102260.44;5069604;28;20003;-53
2021/11/16 09:29:32;;;;;;;;;;;;;;;14.22;100.00;102247.53;5088615;28;19921;-51
2021/11/16 09:32:05;;;;;;;;;;;;;;;14.25;100.00;102252.53;5087001;28;20442;-51
2021/11/16 09:34:32;;;;;;;;;;;;;;;14.00;100.00;102250.94;5070391;28;19988;-51
2021/11/16 09:36:58;;;;;;;;;;;;;;;13.94;100.00;102253.53;5055043;28;19917;-50
2021/11/16 09:39:25;;;;;;;;;;;;;;;13.96;100.00;102254.19;5053436;28;19928;-52
2021/11/16 09:41:54;;;;;;;;;;;;;;;14.09;100.00;102254.38;5053552;28;19920;-54
2021/11/16 09:44:31;;;;;;;;;;;;;;;14.11;100.00;102246.97;5053509;28;19986;-52
2021/11/16 09:46:56;;;;;;;;;;;;;;;13.95;100.00;102242.56;5052163;28;19917;-49
2021/11/16 09:49:26;;;;;;;;;;;;;;;13.71;100.00;102246.34;5054077;28;20237;-54
2021/11/16 09:51:56;;;;;;;;;;;;;;;13.82;100.00;102248.56;5085587;28;19916;-55
2021/11/16 09:54:22;;;;;;;;;;;;;;;13.84;100.00;102245.72;5053313;28;20019;-55
2021/11/16 09:56:47;;;;;;;;;;;;;;;13.85;100.00;102244.69;5053406;28;20332;-53
2021/11/16 09:59:24;;;;;;;;;;;;;;;13.82;100.00;102243.19;5053373;28;19921;-53
2021/11/16 10:01:49;;;;;;;;;;;;;;;13.60;100.00;102243.06;5053782;28;20307;-54
2021/11/16 10:04:19;;;;;;;;;;;;;;;13.60;100.00;102236.88;5051839;28;20003;-53
2021/11/16 10:06:45;;;;;;;;;;;;;;;13.62;100.00;102232.13;5053720;28;20356;-50
2021/11/16 10:09:10;;;;;;;;;;;;;;;13.65;100.00;102241.69;5052944;28;19924;-52
2021/11/16 10:11:41;;;;;;;;;;;;;;;13.70;100.00;102244.69;5085506;28;19958;-52
2021/11/16 10:14:08;;;;;;;;;;;;;;;13.81;100.00;102241.53;5051826;28;19917;-51
2021/11/16 10:16:34;;;;;;;;;;;;;;;13.72;100.00;102237.25;5085889;28;19992;-53
2021/11/16 10:18:59;;;;;;;;;;;;;;;13.49;100.00;102238.13;5053399;28;20348;-50
2021/11/16 10:21:25;;;;;;;;;;;;;;;13.82;100.00;102235.13;5051968;28;19916;-48
2021/11/16 10:23:53;;;;;;;;;;;;;;;13.93;100.00;102233.84;5053062;28;19931;-53
2021/11/16 10:26:19;;;;;;;;;;;;;;;13.76;100.00;102225.97;5052767;28;19920;-54
2021/11/16 10:28:46;;;;;;;;;;;;;;;13.69;100.00;102226.88;5052968;28;19979;-53
2021/11/16 10:31:11;;;;;;;;;;;;;;;13.95;100.00;102225.63;5052987;28;19921;-50
2021/11/16 10:33:39;;;;;;;;;;;;;;;13.99;100.00;102221.53;5051956;28;19967;-53
2021/11/16 10:36:09;;;;;;;;;;;;;;;13.91;100.00;102225.13;5052718;28;19917;-53
2021/11/16 10:38:45;;;;;;;;;;;;;;;13.62;100.00;102222.25;5052029;28;20004;-51
2021/11/16 10:41:21;;;;;;;;;;;;;;;13.91;100.00;102225.13;5084988;28;19917;-52
2021/11/16 10:43:52;;;;;;;;;;;;;;;13.81;100.00;102216.50;5052647;28;19917;-53
2021/11/16 10:46:19;;;;;;;;;;;;;;;13.85;100.00;102213.28;5051612;28;19921;-53
2021/11/16 10:48:47;;;;;;;;;;;;;;;13.81;100.00;102214.66;5051258;28;19974;-55
2021/11/16 10:51:16;;;;;;;;;;;;;;;13.78;100.00;102212.31;5084780;28;20367;-54
2021/11/16 10:53:49;;;;;;;;;;;;;;;13.84;100.00;102203.53;5053361;28;20068;-53
2021/11/16 10:56:21;;;;;;;;;;;;;;;13.84;100.00;102211.63;5052183;28;19970;-52
2021/11/16 10:58:48;;;;;;;;;;;;;;;13.89;100.00;102202.97;5051418;28;20264;-53
2021/11/16 11:01:18;;;;;;;;;;;;;;;13.93;100.00;102200.75;5052547;28;19920;-53
2021/11/16 11:03:45;;;;;;;;;;;;;;;13.86;100.00;102201.50;5053601;28;19957;-53
2021/11/16 11:06:10;;;;;;;;;;;;;;;13.93;100.00;102198.06;5052114;28;19921;-52
2021/11/16 11:08:44;;;;;;;;;;;;;;;14.00;100.00;102194.47;5052715;28;19913;-55
2021/11/16 11:11:28;;;;;;;;;;;;;;;14.17;100.00;102194.25;5084531;28;19916;-50
2021/11/16 11:14:12;;;;;;;;;;;;;;;14.19;100.00;102194.94;5052588;28;19916;-51
2021/11/16 11:16:43;;;;;;;;;;;;;;;14.19;100.00;102195.75;5052249;28;19971;-50
2021/11/16 11:19:18;;;;;;;;;;;;;;;14.22;100.00;102191.00;5053995;28;19927;-51
2021/11/16 11:21:57;;;;;;;;;;;;;;;14.23;100.00;102195.38;5056466;28;19969;-52
2021/11/16 11:24:27;;;;;;;;;;;;;;;14.15;100.00;102189.09;5088265;28;19990;-50
2021/11/16 11:26:57;;;;;;;;;;;;;;;14.11;100.00;102190.47;5055803;28;19951;-50
2021/11/16 11:29:30;;;;;;;;;;;;;;;13.86;100.00;102179.16;5056481;28;19917;-50
2021/11/16 11:32:02;;;;;;;;;;;;;;;13.93;100.00;102182.75;5055740;28;19956;-50
2021/11/16 11:34:31;;;;;;;;;;;;;;;14.08;100.00;102174.72;5054853;28;20365;-51
2021/11/16 11:37:01;;;;;;;;;;;;;;;13.97;100.00;102178.69;5055693;28;20038;-53
2021/11/16 11:39:31;;;;;;;;;;;;;;;14.03;100.00;102174.41;5055671;28;19962;-51
2021/11/16 11:41:57;;;;;;;;;;;;;;;13.58;100.00;102172.53;5056255;28;19924;-50
2021/11/16 11:44:23;;;;;;;;;;;;;;;14.00;100.00;102170.25;5055569;28;20284;-50
2021/11/16 11:46:54;;;;;;;;;;;;;;;13.69;100.00;102162.34;5087898;28;20019;-55
2021/11/16 11:49:20;;;;;;;;;;;;;;;13.70;100.00;102159.47;5055612;28;19960;-55
2021/11/16 11:51:46;;;;;;;;;;;;;;;13.57;100.00;102156.59;5088796;28;20264;-50
2021/11/16 11:54:13;;;;;;;;;;;;;;;13.54;100.00;102154.28;5054304;28;19923;-51
2021/11/16 11:56:39;;;;;;;;;;;;;;;12.99;100.00;102152.53;5055871;28;19940;-58
2021/11/16 11:59:05;;;;;;;;;;;;;;;13.44;100.00;102152.66;5054708;28;20352;-51
2021/11/16 12:01:32;;;;;;;;;;;;;;;13.64;100.00;102151.31;5055960;28;20443;-54
2021/11/16 12:03:59;;;;;;;;;;;;;;;13.51;100.00;102152.78;5055871;28;20019;-49
2021/11/16 12:06:24;;;;;;;;;;;;;;;13.37;100.00;102153.53;5055963;28;19965;-47
2021/11/16 12:08:53;;;;;;;;;;;;;;;13.51;100.00;102149.28;5055785;28;20373;-49
2021/11/16 12:11:19;;;;;;;;;;;;;;;13.45;100.00;102145.47;5071162;28;19979;-51
2021/11/16 12:13:46;;;;;;;;;;;;;;;13.90;100.00;102158.94;5054344;28;19917;-50
2021/11/16 12:16:30;;;;;;;;;;;;;;;13.94;100.00;102156.72;5055963;28;19970;-50
2021/11/16 12:19:07;;;;;;;;;;;;;;;13.82;100.00;102146.41;5053891;28;19924;-46
2021/11/16 12:21:34;;;;;;;;;;;;;;;13.96;100.00;102138.53;5055286;28;19996;-47
2021/11/16 12:24:04;;;;;;;;;;;;;;;13.98;100.00;102144.56;5055544;28;19917;-51
2021/11/16 12:26:31;;;;;;;;;;;;;;;13.84;100.00;102133.63;5055079;28;19924;-52
2021/11/16 12:29:14;;;;;;;;;;;;;;;13.87;100.00;102132.41;5086824;28;19957;-48
2021/11/16 12:31:39;;;;;;;;;;;;;;;13.91;100.00;102129.16;5055187;28;19917;-47
2021/11/16 12:34:06;;;;;;;;;;;;;;;13.77;100.00;102128.16;5053784;28;20380;-49
2021/11/16 12:36:32;;;;;;;;;;;;;;;13.81;100.00;102122.41;5054884;28;19971;-50
2021/11/16 12:39:33;;;;;;;;;;;;;;;13.82;100.00;102124.88;5055099;28;20007;-46
2021/11/16 12:42:09;;;;;;;;;;;;;;;13.89;100.00;102116.91;5032665;28;19955;-48
2021/11/16 12:44:57;;;;;;;;;;;;;;;13.60;100.00;102116.72;5065176;28;19916;-48
2021/11/16 12:47:22;;;;;;;;;;;;;;;13.40;100.00;102107.53;5054914;28;20366;-50
2021/11/16 12:49:48;;;;;;;;;;;;;;;13.48;100.00;102107.47;5053229;28;19987;-49